Aérodrome :
LOGIN :

S'inscrire | Disclaimer

   EN    FR    IT 

 










Légende :    VFR   VFR Marginal   IFR   IFR Intensif   IFR Très Intensif
Visi : 
Plafond : 
>= 8 km
>= 3000ft
5 à 8 km
1000 à 3000 ft
1500m à 5 km
500 à 1000 ft
800 à 1500m
200 à 500 ft
< 800m
< 200 ft
Symboles :   Orages  Brouillard  Fortes neiges  Fortes précipitations  Vent > 20 kt
SIGMETs :   Divers  Orages  Givrage  Turbulence  Onde Orograph.  Cendres Volcan.







- Altitude de l'aérodrome : 1416 ft
- Code IATA : ZRH


LSZH - Zurich

DERNIER METAR :
  • 221520Z 31006KT 270V360 9999 FEW060 24/09 Q1017 NOSIG

METARs EXPIRÉS :
  • 221450Z VRB03KT 9999 FEW060 24/09 Q1017 NOSIG
  • 221420Z VRB04KT 9999 FEW060 24/08 Q1017 NOSIG
  • 221350Z 28007KT 240V310 9999 FEW060 24/07 Q1017 NOSIG
  • 221320Z 28005KT 200V340 9999 FEW060 23/07 Q1018 NOSIG
  • 221250Z VRB04KT 9999 FEW055 23/09 Q1018 NOSIG

TAF TAF LSZH
Valide du 22 à 15h jusqu'au 23 à 21h UTC


221425Z 2215/2321 28007KT 9999 FEW060 TX24/2215Z TN10/2306Z TX25/2315Z
BECMG 2217/2220 VRB03KT CAVOK
BECMG 2309/2312 28010KT 9999 FEW060
PROB30
TEMPO 2311/2316 30015G25KT
ATIS : +41 43 816 2295 (DEP) +41 43 816 2294 (ARR)
Pas de NOTAMs connus pour ce terrain.



MET'MAP, la Météo Aéronautique d'un coup d'oeil ! - Copyright ORBIFLY Décembre 2007 - Disclaimer

ORBIFLY MET'MAP TEAM :

Programmation & Développement : Alexandra Zaïnal
Conception & Développement : Baudouin d'Aumeries
Co-Programmation & Développement : Marc-Olivier Méhu
Soutien technique & logistique : Manuel Goepfert

Contact : metmap@orbifly.com




SOURCES & CREDITS :

   NOAA